sensor_id;sensor_type;location;lat;lon;timestamp;P1;durP1;ratioP1;P2;durP2;ratioP2
8183;SDS011;4133;48.752;9.088;2024-01-27T00:01:56;1.17;;;1.03;;
8183;SDS011;4133;48.752;9.088;2024-01-27T00:04:22;3.80;;;1.30;;
8183;SDS011;4133;48.752;9.088;2024-01-27T00:06:48;0.50;;;0.50;;
8183;SDS011;4133;48.752;9.088;2024-01-27T00:09:14;0.73;;;0.73;;
8183;SDS011;4133;48.752;9.088;2024-01-27T00:11:40;2.80;;;0.73;;
8183;SDS011;4133;48.752;9.088;2024-01-27T00:14:06;1.17;;;0.90;;
8183;SDS011;4133;48.752;9.088;2024-01-27T00:16:32;0.50;;;0.50;;
8183;SDS011;4133;48.752;9.088;2024-01-27T00:18:58;0.67;;;0.67;;
8183;SDS011;4133;48.752;9.088;2024-01-27T00:21:24;1.27;;;0.50;;
8183;SDS011;4133;48.752;9.088;2024-01-27T00:23:50;0.83;;;0.83;;
8183;SDS011;4133;48.752;9.088;2024-01-27T00:26:16;0.60;;;0.60;;
8183;SDS011;4133;48.752;9.088;2024-01-27T00:28:42;0.70;;;0.70;;
8183;SDS011;4133;48.752;9.088;2024-01-27T00:31:08;0.60;;;0.60;;
8183;SDS011;4133;48.752;9.088;2024-01-27T00:33:34;0.80;;;0.73;;
8183;SDS011;4133;48.752;9.088;2024-01-27T00:36:01;0.77;;;0.73;;
8183;SDS011;4133;48.752;9.088;2024-01-27T00:38:27;0.70;;;0.70;;
8183;SDS011;4133;48.752;9.088;2024-01-27T00:40:53;0.50;;;0.50;;
8183;SDS011;4133;48.752;9.088;2024-01-27T00:43:19;3.03;;;0.80;;
8183;SDS011;4133;48.752;9.088;2024-01-27T00:45:45;0.57;;;0.57;;
8183;SDS011;4133;48.752;9.088;2024-01-27T00:48:11;0.70;;;0.70;;
8183;SDS011;4133;48.752;9.088;2024-01-27T00:50:37;0.60;;;0.40;;
8183;SDS011;4133;48.752;9.088;2024-01-27T00:53:03;1.80;;;0.90;;
8183;SDS011;4133;48.752;9.088;2024-01-27T00:55:29;2.53;;;0.70;;
8183;SDS011;4133;48.752;9.088;2024-01-27T00:57:55;0.90;;;0.70;;
8183;SDS011;4133;48.752;9.088;2024-01-27T01:00:21;0.50;;;0.50;;
8183;SDS011;4133;48.752;9.088;2024-01-27T01:02:47;2.10;;;0.77;;
8183;SDS011;4133;48.752;9.088;2024-01-27T01:05:13;0.80;;;0.80;;
8183;SDS011;4133;48.752;9.088;2024-01-27T01:07:39;0.50;;;0.50;;
8183;SDS011;4133;48.752;9.088;2024-01-27T01:10:05;2.93;;;0.57;;
8183;SDS011;4133;48.752;9.088;2024-01-27T01:12:32;0.77;;;0.60;;
8183;SDS011;4133;48.752;9.088;2024-01-27T01:14:58;0.50;;;0.50;;
8183;SDS011;4133;48.752;9.088;2024-01-27T01:17:24;0.73;;;0.70;;
8183;SDS011;4133;48.752;9.088;2024-01-27T01:19:50;0.60;;;0.60;;
8183;SDS011;4133;48.752;9.088;2024-01-27T01:22:16;0.80;;;0.80;;
8183;SDS011;4133;48.752;9.088;2024-01-27T01:24:42;0.70;;;0.70;;
8183;SDS011;4133;48.752;9.088;2024-01-27T01:27:08;0.50;;;0.50;;
8183;SDS011;4133;48.752;9.088;2024-01-27T01:29:34;0.60;;;0.60;;
8183;SDS011;4133;48.752;9.088;2024-01-27T01:32:00;0.93;;;0.60;;
8183;SDS011;4133;48.752;9.088;2024-01-27T01:34:29;0.60;;;0.60;;
8183;SDS011;4133;48.752;9.088;2024-01-27T01:36:55;0.73;;;0.50;;
8183;SDS011;4133;48.752;9.088;2024-01-27T01:39:22;0.73;;;0.73;;
8183;SDS011;4133;48.752;9.088;2024-01-27T01:41:48;0.80;;;0.63;;
8183;SDS011;4133;48.752;9.088;2024-01-27T01:44:14;0.60;;;0.60;;
8183;SDS011;4133;48.752;9.088;2024-01-27T01:46:40;0.93;;;0.93;;
8183;SDS011;4133;48.752;9.088;2024-01-27T01:49:06;0.93;;;0.70;;
8183;SDS011;4133;48.752;9.088;2024-01-27T01:51:33;0.60;;;0.60;;
8183;SDS011;4133;48.752;9.088;2024-01-27T01:53:59;0.60;;;0.60;;
8183;SDS011;4133;48.752;9.088;2024-01-27T01:56:25;0.70;;;0.70;;
8183;SDS011;4133;48.752;9.088;2024-01-27T01:58:51;1.07;;;0.97;;
8183;SDS011;4133;48.752;9.088;2024-01-27T02:01:17;0.80;;;0.80;;
8183;SDS011;4133;48.752;9.088;2024-01-27T02:03:51;1.03;;;0.50;;
8183;SDS011;4133;48.752;9.088;2024-01-27T02:06:17;0.70;;;0.70;;
8183;SDS011;4133;48.752;9.088;2024-01-27T02:08:43;0.93;;;0.63;;
8183;SDS011;4133;48.752;9.088;2024-01-27T02:11:09;0.53;;;0.53;;
8183;SDS011;4133;48.752;9.088;2024-01-27T02:13:35;0.60;;;0.60;;
8183;SDS011;4133;48.752;9.088;2024-01-27T02:16:01;0.70;;;0.70;;
8183;SDS011;4133;48.752;9.088;2024-01-27T02:18:27;0.80;;;0.80;;
8183;SDS011;4133;48.752;9.088;2024-01-27T02:20:53;0.77;;;0.77;;
8183;SDS011;4133;48.752;9.088;2024-01-27T02:23:19;0.70;;;0.70;;
8183;SDS011;4133;48.752;9.088;2024-01-27T02:25:45;3.80;;;0.93;;
8183;SDS011;4133;48.752;9.088;2024-01-27T02:28:11;0.70;;;0.70;;
8183;SDS011;4133;48.752;9.088;2024-01-27T02:30:40;0.73;;;0.70;;
8183;SDS011;4133;48.752;9.088;2024-01-27T02:33:06;0.63;;;0.63;;
8183;SDS011;4133;48.752;9.088;2024-01-27T02:35:32;0.80;;;0.80;;
8183;SDS011;4133;48.752;9.088;2024-01-27T02:37:58;0.60;;;0.60;;
8183;SDS011;4133;48.752;9.088;2024-01-27T02:40:24;1.73;;;0.67;;
8183;SDS011;4133;48.752;9.088;2024-01-27T02:42:50;3.10;;;0.90;;
8183;SDS011;4133;48.752;9.088;2024-01-27T02:45:16;0.50;;;0.50;;
8183;SDS011;4133;48.752;9.088;2024-01-27T02:47:42;0.57;;;0.57;;
8183;SDS011;4133;48.752;9.088;2024-01-27T02:50:08;0.70;;;0.70;;
8183;SDS011;4133;48.752;9.088;2024-01-27T02:52:34;0.67;;;0.67;;
8183;SDS011;4133;48.752;9.088;2024-01-27T02:55:00;0.60;;;0.60;;
8183;SDS011;4133;48.752;9.088;2024-01-27T02:57:26;1.80;;;1.03;;
8183;SDS011;4133;48.752;9.088;2024-01-27T02:59:52;0.70;;;0.70;;
8183;SDS011;4133;48.752;9.088;2024-01-27T03:02:18;0.60;;;0.60;;
8183;SDS011;4133;48.752;9.088;2024-01-27T03:04:44;0.43;;;0.43;;
8183;SDS011;4133;48.752;9.088;2024-01-27T03:07:10;1.37;;;0.77;;
8183;SDS011;4133;48.752;9.088;2024-01-27T03:09:36;2.85;;;1.10;;
8183;SDS011;4133;48.752;9.088;2024-01-27T03:12:02;1.03;;;0.83;;
8183;SDS011;4133;48.752;9.088;2024-01-27T03:14:28;3.13;;;0.70;;
8183;SDS011;4133;48.752;9.088;2024-01-27T03:16:54;0.60;;;0.60;;
8183;SDS011;4133;48.752;9.088;2024-01-27T03:19:20;1.17;;;0.83;;
8183;SDS011;4133;48.752;9.088;2024-01-27T03:21:47;0.70;;;0.70;;
8183;SDS011;4133;48.752;9.088;2024-01-27T03:24:13;0.50;;;0.50;;
8183;SDS011;4133;48.752;9.088;2024-01-27T03:26:38;1.37;;;0.70;;
8183;SDS011;4133;48.752;9.088;2024-01-27T03:29:04;0.73;;;0.60;;
8183;SDS011;4133;48.752;9.088;2024-01-27T03:31:31;0.80;;;0.70;;
8183;SDS011;4133;48.752;9.088;2024-01-27T03:34:00;0.70;;;0.70;;
8183;SDS011;4133;48.752;9.088;2024-01-27T03:36:26;0.70;;;0.70;;
8183;SDS011;4133;48.752;9.088;2024-01-27T03:38:53;0.97;;;0.60;;
8183;SDS011;4133;48.752;9.088;2024-01-27T03:41:19;0.80;;;0.80;;
8183;SDS011;4133;48.752;9.088;2024-01-27T03:43:45;1.07;;;0.97;;
8183;SDS011;4133;48.752;9.088;2024-01-27T03:46:11;0.47;;;0.47;;
8183;SDS011;4133;48.752;9.088;2024-01-27T03:48:37;0.80;;;0.80;;
8183;SDS011;4133;48.752;9.088;2024-01-27T03:51:03;0.40;;;0.40;;
8183;SDS011;4133;48.752;9.088;2024-01-27T03:53:30;0.93;;;0.77;;
8183;SDS011;4133;48.752;9.088;2024-01-27T03:55:56;0.47;;;0.47;;
8183;SDS011;4133;48.752;9.088;2024-01-27T03:58:29;0.50;;;0.50;;
8183;SDS011;4133;48.752;9.088;2024-01-27T04:00:55;0.80;;;0.80;;
8183;SDS011;4133;48.752;9.088;2024-01-27T04:03:21;0.70;;;0.70;;
8183;SDS011;4133;48.752;9.088;2024-01-27T04:05:48;1.17;;;0.90;;
8183;SDS011;4133;48.752;9.088;2024-01-27T04:08:13;2.20;;;0.77;;
8183;SDS011;4133;48.752;9.088;2024-01-27T04:10:39;0.70;;;0.70;;
8183;SDS011;4133;48.752;9.088;2024-01-27T04:13:06;4.90;;;0.63;;
8183;SDS011;4133;48.752;9.088;2024-01-27T04:15:34;0.60;;;0.60;;
8183;SDS011;4133;48.752;9.088;2024-01-27T04:18:03;0.80;;;0.80;;
8183;SDS011;4133;48.752;9.088;2024-01-27T04:20:29;2.10;;;0.90;;
8183;SDS011;4133;48.752;9.088;2024-01-27T04:22:55;0.70;;;0.70;;
8183;SDS011;4133;48.752;9.088;2024-01-27T04:25:21;0.67;;;0.67;;
8183;SDS011;4133;48.752;9.088;2024-01-27T04:27:47;2.63;;;1.33;;
8183;SDS011;4133;48.752;9.088;2024-01-27T04:30:13;6.57;;;0.63;;
8183;SDS011;4133;48.752;9.088;2024-01-27T04:32:39;0.87;;;0.87;;
8183;SDS011;4133;48.752;9.088;2024-01-27T04:35:08;0.70;;;0.70;;
8183;SDS011;4133;48.752;9.088;2024-01-27T04:37:34;0.70;;;0.70;;
8183;SDS011;4133;48.752;9.088;2024-01-27T04:40:00;3.60;;;1.80;;
8183;SDS011;4133;48.752;9.088;2024-01-27T04:42:26;0.80;;;0.80;;
8183;SDS011;4133;48.752;9.088;2024-01-27T04:44:52;0.50;;;0.50;;
8183;SDS011;4133;48.752;9.088;2024-01-27T04:47:18;0.50;;;0.50;;
8183;SDS011;4133;48.752;9.088;2024-01-27T04:49:44;0.60;;;0.60;;
8183;SDS011;4133;48.752;9.088;2024-01-27T04:52:10;1.03;;;0.93;;
8183;SDS011;4133;48.752;9.088;2024-01-27T04:54:36;0.90;;;0.90;;
8183;SDS011;4133;48.752;9.088;2024-01-27T04:57:02;3.93;;;0.50;;
8183;SDS011;4133;48.752;9.088;2024-01-27T04:59:28;0.97;;;0.83;;
8183;SDS011;4133;48.752;9.088;2024-01-27T05:01:54;0.57;;;0.57;;
8183;SDS011;4133;48.752;9.088;2024-01-27T05:04:20;0.60;;;0.60;;
8183;SDS011;4133;48.752;9.088;2024-01-27T05:06:46;0.70;;;0.70;;
8183;SDS011;4133;48.752;9.088;2024-01-27T05:09:12;1.70;;;1.00;;
8183;SDS011;4133;48.752;9.088;2024-01-27T05:11:38;0.90;;;0.90;;
8183;SDS011;4133;48.752;9.088;2024-01-27T05:14:04;0.70;;;0.70;;
8183;SDS011;4133;48.752;9.088;2024-01-27T05:16:30;0.80;;;0.80;;
8183;SDS011;4133;48.752;9.088;2024-01-27T05:18:58;1.53;;;0.70;;
8183;SDS011;4133;48.752;9.088;2024-01-27T05:21:24;1.20;;;0.77;;
8183;SDS011;4133;48.752;9.088;2024-01-27T05:23:50;0.60;;;0.60;;
8183;SDS011;4133;48.752;9.088;2024-01-27T05:26:16;8.70;;;0.83;;
8183;SDS011;4133;48.752;9.088;2024-01-27T05:28:42;0.73;;;0.70;;
8183;SDS011;4133;48.752;9.088;2024-01-27T05:31:08;2.07;;;1.07;;
8183;SDS011;4133;48.752;9.088;2024-01-27T05:33:34;0.60;;;0.60;;
8183;SDS011;4133;48.752;9.088;2024-01-27T05:36:01;0.63;;;0.63;;
8183;SDS011;4133;48.752;9.088;2024-01-27T05:38:26;0.63;;;0.63;;
8183;SDS011;4133;48.752;9.088;2024-01-27T05:40:55;1.03;;;0.60;;
8183;SDS011;4133;48.752;9.088;2024-01-27T05:43:21;0.67;;;0.67;;
8183;SDS011;4133;48.752;9.088;2024-01-27T05:45:47;0.80;;;0.80;;
8183;SDS011;4133;48.752;9.088;2024-01-27T05:48:14;1.60;;;1.00;;
8183;SDS011;4133;48.752;9.088;2024-01-27T05:50:41;0.53;;;0.53;;
8183;SDS011;4133;48.752;9.088;2024-01-27T05:53:07;1.07;;;1.07;;
8183;SDS011;4133;48.752;9.088;2024-01-27T05:55:33;0.40;;;0.40;;
8183;SDS011;4133;48.752;9.088;2024-01-27T05:57:59;0.70;;;0.70;;
8183;SDS011;4133;48.752;9.088;2024-01-27T06:00:25;0.87;;;0.87;;
8183;SDS011;4133;48.752;9.088;2024-01-27T06:02:51;4.17;;;0.73;;
8183;SDS011;4133;48.752;9.088;2024-01-27T06:05:17;1.60;;;0.70;;
8183;SDS011;4133;48.752;9.088;2024-01-27T06:07:44;1.07;;;0.87;;
8183;SDS011;4133;48.752;9.088;2024-01-27T06:10:11;0.50;;;0.50;;
8183;SDS011;4133;48.752;9.088;2024-01-27T06:12:37;1.47;;;0.50;;
8183;SDS011;4133;48.752;9.088;2024-01-27T06:15:04;0.80;;;0.80;;
8183;SDS011;4133;48.752;9.088;2024-01-27T06:17:31;1.83;;;0.63;;
8183;SDS011;4133;48.752;9.088;2024-01-27T06:19:57;0.70;;;0.70;;
8183;SDS011;4133;48.752;9.088;2024-01-27T06:22:23;1.20;;;0.90;;
8183;SDS011;4133;48.752;9.088;2024-01-27T06:24:49;0.50;;;0.50;;
8183;SDS011;4133;48.752;9.088;2024-01-27T06:27:15;2.27;;;1.03;;
8183;SDS011;4133;48.752;9.088;2024-01-27T06:29:41;0.60;;;0.60;;
8183;SDS011;4133;48.752;9.088;2024-01-27T06:32:07;1.27;;;1.17;;
8183;SDS011;4133;48.752;9.088;2024-01-27T06:34:33;0.80;;;0.80;;
8183;SDS011;4133;48.752;9.088;2024-01-27T06:36:59;4.40;;;0.83;;
8183;SDS011;4133;48.752;9.088;2024-01-27T06:39:25;0.77;;;0.77;;
8183;SDS011;4133;48.752;9.088;2024-01-27T06:41:51;0.90;;;0.90;;
8183;SDS011;4133;48.752;9.088;2024-01-27T06:44:17;1.60;;;0.90;;
8183;SDS011;4133;48.752;9.088;2024-01-27T06:46:43;1.27;;;0.60;;
8183;SDS011;4133;48.752;9.088;2024-01-27T06:49:11;1.50;;;1.37;;
8183;SDS011;4133;48.752;9.088;2024-01-27T06:51:38;1.80;;;1.10;;
8183;SDS011;4133;48.752;9.088;2024-01-27T06:54:04;0.90;;;0.87;;
8183;SDS011;4133;48.752;9.088;2024-01-27T06:56:29;0.87;;;0.73;;
8183;SDS011;4133;48.752;9.088;2024-01-27T06:58:55;1.10;;;1.00;;
8183;SDS011;4133;48.752;9.088;2024-01-27T07:01:21;0.70;;;0.70;;
8183;SDS011;4133;48.752;9.088;2024-01-27T07:03:48;0.80;;;0.80;;
8183;SDS011;4133;48.752;9.088;2024-01-27T07:06:14;2.07;;;1.13;;
8183;SDS011;4133;48.752;9.088;2024-01-27T07:08:40;0.90;;;0.90;;
8183;SDS011;4133;48.752;9.088;2024-01-27T07:11:06;0.50;;;0.50;;
8183;SDS011;4133;48.752;9.088;2024-01-27T07:13:32;0.90;;;0.90;;
8183;SDS011;4133;48.752;9.088;2024-01-27T07:15:59;1.60;;;0.93;;
8183;SDS011;4133;48.752;9.088;2024-01-27T07:18:25;1.17;;;0.70;;
8183;SDS011;4133;48.752;9.088;2024-01-27T07:20:51;0.90;;;0.90;;
8183;SDS011;4133;48.752;9.088;2024-01-27T07:23:17;0.67;;;0.67;;
8183;SDS011;4133;48.752;9.088;2024-01-27T07:25:43;2.60;;;0.90;;
8183;SDS011;4133;48.752;9.088;2024-01-27T07:28:09;0.77;;;0.77;;
8183;SDS011;4133;48.752;9.088;2024-01-27T07:30:36;5.17;;;0.80;;
8183;SDS011;4133;48.752;9.088;2024-01-27T07:33:02;1.57;;;0.60;;
8183;SDS011;4133;48.752;9.088;2024-01-27T07:35:28;1.43;;;0.80;;
8183;SDS011;4133;48.752;9.088;2024-01-27T07:37:54;1.27;;;0.90;;
8183;SDS011;4133;48.752;9.088;2024-01-27T07:40:20;0.97;;;0.97;;
8183;SDS011;4133;48.752;9.088;2024-01-27T07:42:47;0.93;;;0.77;;
8183;SDS011;4133;48.752;9.088;2024-01-27T07:45:13;0.80;;;0.80;;
8183;SDS011;4133;48.752;9.088;2024-01-27T07:47:40;1.13;;;1.00;;
8183;SDS011;4133;48.752;9.088;2024-01-27T07:50:06;2.23;;;1.10;;
8183;SDS011;4133;48.752;9.088;2024-01-27T07:52:34;0.90;;;0.90;;
8183;SDS011;4133;48.752;9.088;2024-01-27T07:55:00;0.70;;;0.70;;
8183;SDS011;4133;48.752;9.088;2024-01-27T07:57:27;0.63;;;0.63;;
8183;SDS011;4133;48.752;9.088;2024-01-27T07:59:53;0.60;;;0.60;;
8183;SDS011;4133;48.752;9.088;2024-01-27T08:02:19;3.53;;;0.83;;
8183;SDS011;4133;48.752;9.088;2024-01-27T08:04:45;0.83;;;0.83;;
8183;SDS011;4133;48.752;9.088;2024-01-27T08:07:11;0.83;;;0.70;;
8183;SDS011;4133;48.752;9.088;2024-01-27T08:09:39;1.10;;;1.00;;
8183;SDS011;4133;48.752;9.088;2024-01-27T08:12:06;0.83;;;0.83;;
8183;SDS011;4133;48.752;9.088;2024-01-27T08:14:32;0.60;;;0.60;;
8183;SDS011;4133;48.752;9.088;2024-01-27T08:17:00;1.00;;;0.90;;
8183;SDS011;4133;48.752;9.088;2024-01-27T08:19:26;0.63;;;0.63;;
8183;SDS011;4133;48.752;9.088;2024-01-27T08:21:52;0.90;;;0.90;;
8183;SDS011;4133;48.752;9.088;2024-01-27T08:24:18;3.10;;;0.70;;
8183;SDS011;4133;48.752;9.088;2024-01-27T08:26:44;1.40;;;0.80;;
8183;SDS011;4133;48.752;9.088;2024-01-27T08:29:11;0.80;;;0.80;;
8183;SDS011;4133;48.752;9.088;2024-01-27T08:31:37;1.98;;;1.20;;
8183;SDS011;4133;48.752;9.088;2024-01-27T08:34:03;1.53;;;1.00;;
8183;SDS011;4133;48.752;9.088;2024-01-27T08:36:30;3.50;;;1.63;;
8183;SDS011;4133;48.752;9.088;2024-01-27T08:38:56;1.37;;;1.27;;
8183;SDS011;4133;48.752;9.088;2024-01-27T08:41:22;1.50;;;1.13;;
8183;SDS011;4133;48.752;9.088;2024-01-27T08:43:48;1.93;;;1.13;;
8183;SDS011;4133;48.752;9.088;2024-01-27T08:46:14;0.90;;;0.90;;
8183;SDS011;4133;48.752;9.088;2024-01-27T08:48:42;1.90;;;1.20;;
8183;SDS011;4133;48.752;9.088;2024-01-27T08:51:09;3.40;;;1.30;;
8183;SDS011;4133;48.752;9.088;2024-01-27T08:53:35;3.07;;;0.97;;
8183;SDS011;4133;48.752;9.088;2024-01-27T08:56:01;4.97;;;1.10;;
8183;SDS011;4133;48.752;9.088;2024-01-27T08:58:27;2.37;;;1.13;;
8183;SDS011;4133;48.752;9.088;2024-01-27T09:00:53;0.87;;;0.80;;
8183;SDS011;4133;48.752;9.088;2024-01-27T09:03:19;1.43;;;1.10;;
8183;SDS011;4133;48.752;9.088;2024-01-27T09:05:48;2.20;;;1.60;;
8183;SDS011;4133;48.752;9.088;2024-01-27T09:08:15;2.57;;;1.10;;
8183;SDS011;4133;48.752;9.088;2024-01-27T09:10:42;1.13;;;1.07;;
8183;SDS011;4133;48.752;9.088;2024-01-27T09:13:08;1.37;;;1.27;;
8183;SDS011;4133;48.752;9.088;2024-01-27T09:15:34;1.50;;;1.40;;
8183;SDS011;4133;48.752;9.088;2024-01-27T09:18:00;1.03;;;1.00;;
8183;SDS011;4133;48.752;9.088;2024-01-27T09:20:26;2.57;;;1.30;;
8183;SDS011;4133;48.752;9.088;2024-01-27T09:22:52;1.53;;;1.17;;
8183;SDS011;4133;48.752;9.088;2024-01-27T09:25:18;5.30;;;1.47;;
8183;SDS011;4133;48.752;9.088;2024-01-27T09:27:44;2.67;;;1.70;;
8183;SDS011;4133;48.752;9.088;2024-01-27T09:30:10;2.67;;;1.23;;
8183;SDS011;4133;48.752;9.088;2024-01-27T09:32:36;2.20;;;1.23;;
8183;SDS011;4133;48.752;9.088;2024-01-27T09:35:02;1.70;;;1.20;;
8183;SDS011;4133;48.752;9.088;2024-01-27T09:37:28;1.10;;;1.10;;
8183;SDS011;4133;48.752;9.088;2024-01-27T09:39:54;1.23;;;1.13;;
8183;SDS011;4133;48.752;9.088;2024-01-27T09:42:20;3.37;;;1.50;;
8183;SDS011;4133;48.752;9.088;2024-01-27T09:44:48;4.77;;;1.27;;
8183;SDS011;4133;48.752;9.088;2024-01-27T09:47:15;5.50;;;1.70;;
8183;SDS011;4133;48.752;9.088;2024-01-27T09:49:41;1.60;;;1.40;;
8183;SDS011;4133;48.752;9.088;2024-01-27T09:52:08;1.77;;;1.30;;
8183;SDS011;4133;48.752;9.088;2024-01-27T09:54:35;1.73;;;1.40;;
8183;SDS011;4133;48.752;9.088;2024-01-27T09:57:01;2.77;;;1.43;;
8183;SDS011;4133;48.752;9.088;2024-01-27T09:59:28;1.90;;;1.30;;
8183;SDS011;4133;48.752;9.088;2024-01-27T10:01:56;1.37;;;1.23;;
8183;SDS011;4133;48.752;9.088;2024-01-27T10:04:22;4.03;;;1.47;;
8183;SDS011;4133;48.752;9.088;2024-01-27T10:06:49;4.47;;;1.23;;
8183;SDS011;4133;48.752;9.088;2024-01-27T10:09:16;4.67;;;1.37;;
8183;SDS011;4133;48.752;9.088;2024-01-27T10:11:45;6.40;;;1.50;;
8183;SDS011;4133;48.752;9.088;2024-01-27T10:14:11;1.50;;;1.03;;
8183;SDS011;4133;48.752;9.088;2024-01-27T10:16:41;1.37;;;1.27;;
8183;SDS011;4133;48.752;9.088;2024-01-27T10:19:08;8.77;;;1.50;;
8183;SDS011;4133;48.752;9.088;2024-01-27T10:21:59;1.00;;;1.00;;
8183;SDS011;4133;48.752;9.088;2024-01-27T10:24:25;1.40;;;1.20;;
8183;SDS011;4133;48.752;9.088;2024-01-27T10:26:58;4.10;;;1.40;;
8183;SDS011;4133;48.752;9.088;2024-01-27T10:29:24;3.00;;;1.20;;
8183;SDS011;4133;48.752;9.088;2024-01-27T10:31:50;3.10;;;1.13;;
8183;SDS011;4133;48.752;9.088;2024-01-27T10:34:19;3.63;;;1.40;;
8183;SDS011;4133;48.752;9.088;2024-01-27T10:36:45;7.00;;;1.37;;
8183;SDS011;4133;48.752;9.088;2024-01-27T10:39:17;3.33;;;1.40;;
8183;SDS011;4133;48.752;9.088;2024-01-27T10:41:45;8.37;;;1.33;;
8183;SDS011;4133;48.752;9.088;2024-01-27T10:44:13;1.40;;;1.30;;
8183;SDS011;4133;48.752;9.088;2024-01-27T10:46:39;2.63;;;1.33;;
8183;SDS011;4133;48.752;9.088;2024-01-27T10:49:07;2.07;;;0.90;;
8183;SDS011;4133;48.752;9.088;2024-01-27T10:51:37;2.70;;;1.17;;
8183;SDS011;4133;48.752;9.088;2024-01-27T10:54:06;1.60;;;1.27;;
8183;SDS011;4133;48.752;9.088;2024-01-27T10:56:35;5.60;;;1.57;;
8183;SDS011;4133;48.752;9.088;2024-01-27T10:59:01;1.20;;;1.10;;
8183;SDS011;4133;48.752;9.088;2024-01-27T11:01:30;3.10;;;1.50;;
8183;SDS011;4133;48.752;9.088;2024-01-27T11:03:59;4.27;;;1.07;;
8183;SDS011;4133;48.752;9.088;2024-01-27T11:06:28;1.23;;;1.13;;
8183;SDS011;4133;48.752;9.088;2024-01-27T11:08:55;1.20;;;1.13;;
8183;SDS011;4133;48.752;9.088;2024-01-27T11:11:21;2.03;;;1.50;;
8183;SDS011;4133;48.752;9.088;2024-01-27T11:13:48;1.23;;;1.13;;
8183;SDS011;4133;48.752;9.088;2024-01-27T11:16:16;1.50;;;1.33;;
8183;SDS011;4133;48.752;9.088;2024-01-27T11:18:42;1.27;;;1.13;;
8183;SDS011;4133;48.752;9.088;2024-01-27T11:21:12;2.80;;;1.60;;
8183;SDS011;4133;48.752;9.088;2024-01-27T11:23:39;1.37;;;1.27;;
8183;SDS011;4133;48.752;9.088;2024-01-27T11:26:05;1.80;;;1.40;;
8183;SDS011;4133;48.752;9.088;2024-01-27T11:28:31;4.80;;;1.80;;
8183;SDS011;4133;48.752;9.088;2024-01-27T11:30:57;2.40;;;1.23;;
8183;SDS011;4133;48.752;9.088;2024-01-27T11:33:27;3.07;;;1.53;;
8183;SDS011;4133;48.752;9.088;2024-01-27T11:36:05;1.73;;;1.13;;
8183;SDS011;4133;48.752;9.088;2024-01-27T11:38:31;4.13;;;1.50;;
8183;SDS011;4133;48.752;9.088;2024-01-27T11:40:59;1.33;;;1.23;;
8183;SDS011;4133;48.752;9.088;2024-01-27T11:43:25;3.30;;;1.47;;
8183;SDS011;4133;48.752;9.088;2024-01-27T11:45:57;2.07;;;1.10;;
8183;SDS011;4133;48.752;9.088;2024-01-27T11:48:24;1.53;;;1.23;;
8183;SDS011;4133;48.752;9.088;2024-01-27T11:51:06;3.90;;;1.40;;
8183;SDS011;4133;48.752;9.088;2024-01-27T11:53:33;1.60;;;1.20;;
8183;SDS011;4133;48.752;9.088;2024-01-27T11:55:59;4.53;;;1.63;;
8183;SDS011;4133;48.752;9.088;2024-01-27T11:58:26;3.30;;;1.23;;
8183;SDS011;4133;48.752;9.088;2024-01-27T12:00:52;6.90;;;1.47;;
8183;SDS011;4133;48.752;9.088;2024-01-27T12:03:19;3.77;;;1.50;;
8183;SDS011;4133;48.752;9.088;2024-01-27T12:05:45;3.97;;;1.33;;
8183;SDS011;4133;48.752;9.088;2024-01-27T12:08:11;2.20;;;1.13;;
8183;SDS011;4133;48.752;9.088;2024-01-27T12:10:40;2.97;;;1.70;;
8183;SDS011;4133;48.752;9.088;2024-01-27T12:13:06;3.30;;;1.10;;
8183;SDS011;4133;48.752;9.088;2024-01-27T12:15:33;3.27;;;1.57;;
8183;SDS011;4133;48.752;9.088;2024-01-27T12:17:59;4.40;;;1.40;;
8183;SDS011;4133;48.752;9.088;2024-01-27T12:20:25;2.53;;;1.33;;
8183;SDS011;4133;48.752;9.088;2024-01-27T12:23:01;3.63;;;1.40;;
8183;SDS011;4133;48.752;9.088;2024-01-27T12:25:27;1.77;;;1.30;;
8183;SDS011;4133;48.752;9.088;2024-01-27T12:27:54;3.40;;;1.33;;
8183;SDS011;4133;48.752;9.088;2024-01-27T12:30:20;1.70;;;1.60;;
8183;SDS011;4133;48.752;9.088;2024-01-27T12:32:47;5.10;;;1.73;;
8183;SDS011;4133;48.752;9.088;2024-01-27T12:35:13;1.30;;;1.20;;
8183;SDS011;4133;48.752;9.088;2024-01-27T12:37:40;2.40;;;1.63;;
8183;SDS011;4133;48.752;9.088;2024-01-27T12:40:16;5.13;;;1.50;;
8183;SDS011;4133;48.752;9.088;2024-01-27T12:42:42;1.83;;;1.13;;
8183;SDS011;4133;48.752;9.088;2024-01-27T12:45:08;3.80;;;1.10;;
8183;SDS011;4133;48.752;9.088;2024-01-27T12:47:34;2.80;;;1.27;;
8183;SDS011;4133;48.752;9.088;2024-01-27T12:50:00;0.97;;;0.90;;
8183;SDS011;4133;48.752;9.088;2024-01-27T12:52:27;1.30;;;1.00;;
8183;SDS011;4133;48.752;9.088;2024-01-27T12:54:53;1.60;;;1.30;;
8183;SDS011;4133;48.752;9.088;2024-01-27T12:57:19;1.57;;;1.07;;
8183;SDS011;4133;48.752;9.088;2024-01-27T12:59:46;1.40;;;1.13;;
8183;SDS011;4133;48.752;9.088;2024-01-27T13:02:12;2.40;;;1.00;;
8183;SDS011;4133;48.752;9.088;2024-01-27T13:04:44;1.87;;;1.23;;
8183;SDS011;4133;48.752;9.088;2024-01-27T13:07:10;2.67;;;1.23;;
8183;SDS011;4133;48.752;9.088;2024-01-27T13:09:36;3.30;;;1.10;;
8183;SDS011;4133;48.752;9.088;2024-01-27T13:12:02;1.53;;;1.00;;
8183;SDS011;4133;48.752;9.088;2024-01-27T13:14:28;0.73;;;0.73;;
8183;SDS011;4133;48.752;9.088;2024-01-27T13:16:55;3.13;;;0.90;;
8183;SDS011;4133;48.752;9.088;2024-01-27T13:19:21;2.63;;;1.00;;
8183;SDS011;4133;48.752;9.088;2024-01-27T13:21:48;1.07;;;0.90;;
8183;SDS011;4133;48.752;9.088;2024-01-27T13:24:14;1.93;;;1.13;;
8183;SDS011;4133;48.752;9.088;2024-01-27T13:26:40;3.20;;;1.03;;
8183;SDS011;4133;48.752;9.088;2024-01-27T13:29:06;1.50;;;1.20;;
8183;SDS011;4133;48.752;9.088;2024-01-27T13:31:33;1.33;;;0.97;;
8183;SDS011;4133;48.752;9.088;2024-01-27T13:33:59;1.10;;;0.67;;
8183;SDS011;4133;48.752;9.088;2024-01-27T13:36:26;1.37;;;1.00;;
8183;SDS011;4133;48.752;9.088;2024-01-27T13:38:52;0.70;;;0.70;;
8183;SDS011;4133;48.752;9.088;2024-01-27T13:41:18;2.03;;;0.80;;
8183;SDS011;4133;48.752;9.088;2024-01-27T13:43:44;0.87;;;0.77;;
8183;SDS011;4133;48.752;9.088;2024-01-27T13:46:11;1.17;;;0.67;;
8183;SDS011;4133;48.752;9.088;2024-01-27T13:48:37;1.90;;;0.60;;
8183;SDS011;4133;48.752;9.088;2024-01-27T13:51:03;0.70;;;0.70;;
8183;SDS011;4133;48.752;9.088;2024-01-27T13:53:29;0.90;;;0.77;;
8183;SDS011;4133;48.752;9.088;2024-01-27T13:55:55;1.17;;;0.80;;
8183;SDS011;4133;48.752;9.088;2024-01-27T13:58:21;1.70;;;0.90;;
8183;SDS011;4133;48.752;9.088;2024-01-27T14:00:47;1.00;;;0.80;;
8183;SDS011;4133;48.752;9.088;2024-01-27T14:03:13;2.20;;;0.80;;
8183;SDS011;4133;48.752;9.088;2024-01-27T14:05:39;4.03;;;1.20;;
8183;SDS011;4133;48.752;9.088;2024-01-27T14:08:07;1.97;;;0.80;;
8183;SDS011;4133;48.752;9.088;2024-01-27T14:10:37;2.33;;;0.70;;
8183;SDS011;4133;48.752;9.088;2024-01-27T14:13:08;0.82;;;0.82;;
8183;SDS011;4133;48.752;9.088;2024-01-27T14:15:37;2.22;;;0.98;;
8183;SDS011;4133;48.752;9.088;2024-01-27T14:18:43;2.10;;;1.05;;
8183;SDS011;4133;48.752;9.088;2024-01-27T14:21:09;2.38;;;1.13;;
8183;SDS011;4133;48.752;9.088;2024-01-27T14:23:36;0.82;;;0.63;;
8183;SDS011;4133;48.752;9.088;2024-01-27T14:26:03;3.40;;;0.90;;
8183;SDS011;4133;48.752;9.088;2024-01-27T14:28:29;3.55;;;1.00;;
8183;SDS011;4133;48.752;9.088;2024-01-27T14:30:55;3.13;;;1.15;;
8183;SDS011;4133;48.752;9.088;2024-01-27T14:33:24;2.45;;;0.80;;
8183;SDS011;4133;48.752;9.088;2024-01-27T14:35:50;1.45;;;0.52;;
8183;SDS011;4133;48.752;9.088;2024-01-27T14:38:16;0.70;;;0.70;;
8183;SDS011;4133;48.752;9.088;2024-01-27T14:40:43;2.22;;;1.17;;
8183;SDS011;4133;48.752;9.088;2024-01-27T14:43:09;1.48;;;0.80;;
8183;SDS011;4133;48.752;9.088;2024-01-27T14:45:37;3.27;;;1.10;;
8183;SDS011;4133;48.752;9.088;2024-01-27T14:48:03;1.03;;;0.80;;
8183;SDS011;4133;48.752;9.088;2024-01-27T14:50:33;1.10;;;1.00;;
8183;SDS011;4133;48.752;9.088;2024-01-27T14:52:59;1.67;;;1.10;;
8183;SDS011;4133;48.752;9.088;2024-01-27T14:55:30;1.47;;;0.80;;
8183;SDS011;4133;48.752;9.088;2024-01-27T14:57:57;2.47;;;1.00;;
8183;SDS011;4133;48.752;9.088;2024-01-27T15:00:23;4.97;;;1.10;;
8183;SDS011;4133;48.752;9.088;2024-01-27T15:02:52;2.07;;;1.50;;
8183;SDS011;4133;48.752;9.088;2024-01-27T15:05:18;0.70;;;0.70;;
8183;SDS011;4133;48.752;9.088;2024-01-27T15:07:50;1.30;;;1.10;;
8183;SDS011;4133;48.752;9.088;2024-01-27T15:10:21;2.80;;;1.23;;
8183;SDS011;4133;48.752;9.088;2024-01-27T15:12:47;1.07;;;0.97;;